Sierra City, CA

2:19 PM PST on December 13, 2019 (GMT -0800)
Sierra City, CA. 96125 | | Change Station
Active Advisory: Winter Weather Advisory

Elev 4203 ft 39.57 °N, 120.63 °W | Updated 9 seconds ago

Ice Pellets
Ice Pellets
40.3 °F
Feels Like 40 °F
N
0
Wind Variable Wind from South
Gusts 0.0 mph

Today
High -- | Low -- °F
--% Chance of Precip.
Yesterday
High -- | Low -- °F
Precip. -- in
Pressure 30.13 in
Visibility 0.2 miles
Clouds
Windchill 40 °F
Dew Point 40 °F
Humidity 99%
Rainfall 0.13 in
Snow Depth Not available.
7:14 AM 4:38 PM
Waning Gibbous, 97% visible
SPECI KBLU 132204Z AUTO 18015G22KT 1/4SM RA FG VV002 03/02 A3013 RMK AO2 P0003 T00280022
Pressure 30.13 in
Visibility 0.2 miles
Clouds
Windchill 40 °F
Dew Point 40 °F
Humidity 99%
Rainfall 0.13 in
Snow Depth Not available.
7:14 AM 4:38 PM
Waning Gibbous, 97% visible
SPECI KBLU 132204Z AUTO 18015G22KT 1/4SM RA FG VV002 03/02 A3013 RMK AO2 P0003 T00280022

Get Your Daily Forecast Email!

Thanks for signing up!

Be on the lookout for a verification email in your inbox.

You'll start receiving severe weather alerts in your inbox..

×

10-Day Weather Forecast

Almanac

Astronomy

Dec. 13, 2019 Rise Set
Actual Time
Civil Twilight
Nautical Twilight
Astronomical Twilight
Moon
Length of Visible Light
Length of Day
Tomorrow will be .
, % of the Moon is Illuminated

Today's Extremes

State Highs State Lows

Community

WunderPhotos

Category 6

Welcome to Category 6. This is the collective home for Weather Underground's featured writeups by Dr. Jeff Masters (right), Bob Henson (left), Chris Burt, and other regular contributors.

Nearby

Air Quality

  Air Quality AQ Index Pollutant
Not available.

Snow Depth

Station Depth Elevation

Earthquake Activity

City Distance Mag. Time & Date
Minimum magnitude displayed is 2.5.

Coastal Water Temperatures

Place Temperature

Stations

Nearby Weather Stations

Station Location Temp. Windchill Dew Point Humidity Wind Precip. Elev Updated Type
                   

Watches & Warnings

Winter Weather Advisory
Issued: 8:08 AM PST Dec. 13, 2019 – National Weather Service

... Winter Weather Advisory now in effect until 4 am PST Sunday
above 6500 feet...

* what... snow expected. Plan on difficult travel conditions,
including during the evening commute on Friday. Total snow
accumulations of 10 to 15 inches, with localized amounts up to
2 feet, are expected.

* Where... western Plumas County/Lassen park and West Slope
northern Sierra Nevada.

* When... until 4 am Sunday.

* Additional details... be prepared for reduced visibilities at
times.

Precautionary/preparedness actions...

A Winter Weather Advisory for snow means periods of snow will
cause primarily travel difficulties. Be prepared for snow covered
roads and limited visibilities, and use caution while driving.
The latest Road conditions for the state you are calling from can
be obtained by calling 5 1 1.